Eden, Maryland
Current Conditions -  °F | °C
As of 8:54 PM on Monday 24 Nov 2014 (Local Time) from KSBY Reporting Station
Scattered Clouds Scattered Clouds  
Wind Chill: 69°   Ceiling: Unl
Heat Index: 69°   Visibility: 10mi
Dew Point: 62°   Wind: 15mph
Humidity: 78%   Direction: 200°SSW
Pressure: 29.77"   Gusts: NA
Location:  38.28°N, 75.65°W
Report Text: KSBY 250154Z 20013KT 10SM FEW050 SCT110 21/17 A2977 RMK AO2 LTG DSNT S RAB41E51 SLP084 P0000 T02060167
Loading
Personal Weather Stations






























Interactive Weather Map New forecast layout! Learn more

10-Day Weather Forecast

Advertisements
Track Severe Weather on mobile